createdAt,value
2022-11-13T00:00:37.498Z,4.28
2022-11-13T00:03:03.848Z,3.80
2022-11-13T00:05:30.228Z,3.90
2022-11-13T00:07:56.577Z,4.85
2022-11-13T00:10:23.477Z,4.35
2022-11-13T00:12:49.818Z,5.20
2022-11-13T00:15:16.299Z,5.13
2022-11-13T00:17:42.645Z,5.28
2022-11-13T00:20:09.177Z,4.68
2022-11-13T00:22:35.508Z,4.05
2022-11-13T00:25:01.902Z,4.72
2022-11-13T00:27:30.768Z,6.40
2022-11-13T00:29:57.207Z,6.50
2022-11-13T00:32:23.556Z,5.75
2022-11-13T00:34:49.892Z,5.82
2022-11-13T00:37:16.254Z,4.78
2022-11-13T00:39:42.591Z,4.60
2022-11-13T00:42:09.092Z,4.68
2022-11-13T00:44:35.453Z,5.70
2022-11-13T00:47:01.868Z,8.48
2022-11-13T00:49:28.461Z,6.63
2022-11-13T00:51:54.860Z,4.97
2022-11-13T00:54:21.445Z,6.60
2022-11-13T00:56:47.881Z,7.00
2022-11-13T00:59:14.251Z,5.68
2022-11-13T01:01:40.763Z,5.45
2022-11-13T01:04:07.163Z,4.90
2022-11-13T01:06:33.502Z,6.78
2022-11-13T01:09:00.120Z,5.22
2022-11-13T01:11:29.357Z,5.65
2022-11-13T01:13:56.175Z,6.32
2022-11-13T01:16:24.882Z,7.75
2022-11-13T01:18:55.249Z,5.63
2022-11-13T01:21:24.913Z,5.07
2022-11-13T01:23:51.473Z,8.50
2022-11-13T01:26:23.898Z,6.97
2022-11-13T01:28:50.549Z,7.63
2022-11-13T01:31:19.987Z,5.65
2022-11-13T01:33:48.049Z,7.00
2022-11-13T01:36:21.322Z,6.65
2022-11-13T01:38:48.171Z,5.45
2022-11-13T01:41:25.322Z,7.45
2022-11-13T01:43:54.453Z,5.72
2022-11-13T01:46:32.593Z,4.10
2022-11-13T01:49:08.002Z,5.15
2022-11-13T01:51:41.277Z,7.07
2022-11-13T01:54:12.993Z,2.60
2022-11-13T01:56:40.746Z,3.90
2022-11-13T01:59:13.027Z,4.32
2022-11-13T02:01:39.677Z,4.40
2022-11-13T02:04:06.091Z,3.88
2022-11-13T02:06:43.904Z,5.93
2022-11-13T02:09:12.597Z,2.72
2022-11-13T02:11:39.522Z,3.17
2022-11-13T02:14:08.461Z,3.50
2022-11-13T02:16:37.789Z,2.55
2022-11-13T02:19:10.265Z,2.72
2022-11-13T02:21:59.578Z,3.63
2022-11-13T02:24:29.590Z,6.28
2022-11-13T02:27:01.771Z,3.10
2022-11-13T02:29:28.101Z,3.92
2022-11-13T02:31:54.488Z,3.17
2022-11-13T02:34:20.878Z,3.85
2022-11-13T02:36:47.757Z,4.60
2022-11-13T02:39:14.608Z,3.45
2022-11-13T02:41:41.176Z,5.75
2022-11-13T02:44:08.330Z,4.20
2022-11-13T02:46:35.070Z,4.30
2022-11-13T02:49:01.535Z,4.63
2022-11-13T02:51:27.984Z,4.93
2022-11-13T02:53:54.927Z,4.68
2022-11-13T02:56:21.297Z,3.92
2022-11-13T02:58:47.840Z,4.60
2022-11-13T03:01:14.214Z,8.75
2022-11-13T03:03:57.103Z,6.93
2022-11-13T03:06:24.405Z,6.43
2022-11-13T03:08:50.766Z,4.15
2022-11-13T03:11:17.179Z,4.43
2022-11-13T03:13:43.529Z,8.23
2022-11-13T03:16:13.018Z,5.40
2022-11-13T03:18:39.680Z,6.93
2022-11-13T03:21:11.414Z,5.63
2022-11-13T03:23:38.684Z,5.65
2022-11-13T03:26:07.518Z,5.03
2022-11-13T03:28:34.981Z,7.22
2022-11-13T03:31:01.418Z,5.47
2022-11-13T03:33:27.917Z,4.28
2022-11-13T03:35:54.676Z,5.03
2022-11-13T03:38:21.325Z,5.68
2022-11-13T03:40:47.865Z,7.28
2022-11-13T03:43:14.299Z,5.43
2022-11-13T03:45:40.675Z,6.13
2022-11-13T03:48:07.093Z,5.88
2022-11-13T03:50:33.514Z,6.50
2022-11-13T03:52:59.929Z,5.15
2022-11-13T03:55:26.327Z,5.18
2022-11-13T03:57:52.651Z,5.05
2022-11-13T04:00:19.021Z,4.93
2022-11-13T04:02:45.354Z,4.47
2022-11-13T04:05:11.801Z,3.83
2022-11-13T04:07:38.145Z,4.35
2022-11-13T04:10:05.111Z,4.57
2022-11-13T04:12:31.481Z,4.68
2022-11-13T04:14:57.836Z,4.07
2022-11-13T04:17:24.241Z,4.70
2022-11-13T04:19:50.661Z,4.32
2022-11-13T04:22:17.147Z,4.35
2022-11-13T04:24:43.514Z,4.47
2022-11-13T04:27:09.925Z,4.45
2022-11-13T04:29:36.303Z,6.07
2022-11-13T04:32:02.644Z,5.63
2022-11-13T04:34:28.973Z,4.97
2022-11-13T04:36:55.537Z,4.18
2022-11-13T04:39:21.885Z,7.18
2022-11-13T04:42:06.945Z,4.57
2022-11-13T04:44:33.351Z,4.15
2022-11-13T04:46:59.673Z,7.10
2022-11-13T04:49:26.045Z,7.18
2022-11-13T04:51:52.377Z,7.78
2022-11-13T04:54:18.825Z,5.90
2022-11-13T04:56:45.374Z,5.15
2022-11-13T04:59:11.798Z,8.00
2022-11-13T05:01:38.522Z,5.88
2022-11-13T05:04:05.319Z,5.85
2022-11-13T05:06:31.725Z,5.43
2022-11-13T05:08:58.227Z,5.95
2022-11-13T05:11:24.545Z,5.07
2022-11-13T05:13:50.893Z,5.75
2022-11-13T05:16:17.304Z,4.75
2022-11-13T05:18:43.641Z,4.60
2022-11-13T05:21:10.072Z,6.05
2022-11-13T05:23:36.810Z,5.18
2022-11-13T05:26:11.717Z,4.75
2022-11-13T05:28:39.203Z,6.27
2022-11-13T05:31:07.714Z,5.55
2022-11-13T05:33:34.884Z,6.18
2022-11-13T05:36:06.749Z,7.57
2022-11-13T05:38:34.063Z,5.15
2022-11-13T05:41:05.600Z,8.60
2022-11-13T05:43:32.563Z,6.15
2022-11-13T05:46:12.278Z,6.88
2022-11-13T05:48:39.518Z,6.25
2022-11-13T05:51:08.890Z,6.43
2022-11-13T05:53:36.574Z,7.88
2022-11-13T05:56:06.099Z,11.20
2022-11-13T05:58:32.989Z,8.07
2022-11-13T06:01:30.257Z,5.47
2022-11-13T06:03:57.893Z,7.82
2022-11-13T06:06:25.837Z,6.72
2022-11-13T06:08:54.269Z,6.45
2022-11-13T06:11:23.342Z,6.47
2022-11-13T06:13:51.197Z,6.50
2022-11-13T06:16:23.490Z,6.97
2022-11-13T06:18:50.888Z,5.45
2022-11-13T06:21:20.579Z,7.47
2022-11-13T06:23:47.330Z,6.47
2022-11-13T06:26:22.649Z,6.15
2022-11-13T06:28:49.113Z,7.00
2022-11-13T06:31:21.995Z,5.57
2022-11-13T06:33:48.810Z,5.57
2022-11-13T06:36:18.574Z,8.68
2022-11-13T06:38:45.181Z,6.50
2022-11-13T06:41:13.604Z,6.57
2022-11-13T06:43:40.356Z,6.43
2022-11-13T06:46:10.541Z,6.88
2022-11-13T06:48:37.033Z,7.53
2022-11-13T06:51:15.354Z,7.63
2022-11-13T06:53:42.382Z,8.93
2022-11-13T06:56:09.658Z,8.82
2022-11-13T06:58:36.155Z,7.90
2022-11-13T07:01:10.675Z,10.20
2022-11-13T07:03:37.511Z,8.05
2022-11-13T07:06:05.726Z,9.13
2022-11-13T07:08:32.391Z,11.80
2022-11-13T07:10:59.213Z,17.83
2022-11-13T07:13:27.262Z,14.82
2022-11-13T07:15:54.009Z,7.40
2022-11-13T07:18:24.162Z,7.90
2022-11-13T07:20:50.810Z,7.70
2022-11-13T07:23:17.179Z,9.05
2022-11-13T07:25:43.521Z,8.32
2022-11-13T07:28:09.953Z,7.00
2022-11-13T07:30:36.279Z,10.70
2022-11-13T07:33:04.306Z,8.82
2022-11-13T07:35:31.035Z,13.15
2022-11-13T07:37:58.005Z,11.57
2022-11-13T07:40:24.596Z,9.77
2022-11-13T07:43:01.928Z,9.32
2022-11-13T07:45:29.161Z,7.18
2022-11-13T07:47:59.938Z,9.20
2022-11-13T07:50:31.042Z,8.32
2022-11-13T07:53:03.407Z,7.35
2022-11-13T07:55:30.153Z,7.78
2022-11-13T07:57:58.498Z,9.63
2022-11-13T08:00:29.367Z,8.23
2022-11-13T08:02:56.226Z,7.60
2022-11-13T08:05:23.274Z,7.72
2022-11-13T08:07:51.666Z,8.95
2022-11-13T08:10:19.982Z,8.02
2022-11-13T08:12:47.312Z,11.88
2022-11-13T08:15:16.926Z,10.07
2022-11-13T08:17:43.306Z,9.23
2022-11-13T08:20:10.393Z,11.85
2022-11-13T08:22:36.721Z,11.35
2022-11-13T08:25:03.682Z,10.63
2022-11-13T08:27:30.177Z,9.15
2022-11-13T08:29:56.501Z,12.57
2022-11-13T08:32:22.858Z,11.93
2022-11-13T08:34:49.447Z,8.98
2022-11-13T08:37:16.041Z,9.18
2022-11-13T08:39:42.434Z,7.80
2022-11-13T08:42:08.766Z,5.07
2022-11-13T08:44:35.129Z,6.20
2022-11-13T08:47:01.518Z,6.13
2022-11-13T08:49:27.862Z,5.38
2022-11-13T08:51:54.198Z,5.43
2022-11-13T08:54:20.874Z,5.47
2022-11-13T08:56:54.468Z,6.72
2022-11-13T08:59:23.693Z,5.97
2022-11-13T09:01:50.458Z,5.30
2022-11-13T09:04:16.793Z,5.97
2022-11-13T09:06:43.198Z,5.38
2022-11-13T09:09:09.633Z,5.78
2022-11-13T09:11:36.172Z,5.90
2022-11-13T09:14:02.550Z,4.95
2022-11-13T09:16:29.091Z,6.38
2022-11-13T09:18:55.500Z,4.57
2022-11-13T09:21:21.837Z,6.90
2022-11-13T09:23:48.159Z,4.53
2022-11-13T09:26:14.546Z,4.50
2022-11-13T09:28:40.877Z,4.70
2022-11-13T09:31:07.599Z,4.93
2022-11-13T09:33:34.241Z,4.43
2022-11-13T09:36:00.811Z,6.50
2022-11-13T09:38:29.810Z,6.03
2022-11-13T09:41:04.796Z,5.10
2022-11-13T09:43:36.666Z,5.35
2022-11-13T09:46:08.726Z,6.38
2022-11-13T09:48:41.697Z,4.60
2022-11-13T09:51:29.554Z,4.65
2022-11-13T09:53:56.213Z,5.10
2022-11-13T09:56:28.119Z,3.88
2022-11-13T09:59:23.817Z,5.45
2022-11-13T10:02:28.782Z,4.15
2022-11-13T10:05:13.454Z,4.90
2022-11-13T10:07:48.516Z,4.32
2022-11-13T10:10:33.296Z,3.93
2022-11-13T10:13:00.824Z,4.57
2022-11-13T10:15:27.772Z,6.07
2022-11-13T10:18:00.440Z,3.55
2022-11-13T10:20:55.642Z,4.45
2022-11-13T10:23:28.095Z,2.88
2022-11-13T10:25:58.353Z,3.13
2022-11-13T10:28:49.562Z,4.35
2022-11-13T10:31:14.401Z,2.92
2022-11-13T10:33:40.730Z,3.42
2022-11-13T10:36:28.551Z,3.85
2022-11-13T10:39:02.896Z,3.22
2022-11-13T10:41:29.414Z,2.95
2022-11-13T10:44:04.419Z,2.95
2022-11-13T10:46:31.593Z,4.40
2022-11-13T10:48:58.669Z,3.60
2022-11-13T10:51:28.777Z,4.43
2022-11-13T10:53:55.782Z,2.83
2022-11-13T10:56:26.423Z,3.85
2022-11-13T10:59:11.434Z,2.90
2022-11-13T11:01:38.913Z,2.72
2022-11-13T11:04:21.493Z,3.03
2022-11-13T11:07:18.419Z,3.25
2022-11-13T11:09:38.367Z,2.72
2022-11-13T11:12:17.208Z,2.47
2022-11-13T11:14:58.976Z,2.90
2022-11-13T11:17:51.347Z,2.60
2022-11-13T11:20:35.593Z,2.75
2022-11-13T11:23:37.134Z,4.53
2022-11-13T11:26:13.767Z,7.82
2022-11-13T11:29:00.311Z,3.30
2022-11-13T11:31:41.975Z,2.70
2022-11-13T11:34:42.001Z,3.03
2022-11-13T11:37:19.421Z,3.55
2022-11-13T11:39:54.813Z,2.72
2022-11-13T11:42:26.701Z,2.13
2022-11-13T11:45:16.233Z,2.67
2022-11-13T11:47:43.427Z,2.00
2022-11-13T11:50:14.630Z,1.55
2022-11-13T11:52:56.508Z,2.38
2022-11-13T11:55:37.298Z,2.65
2022-11-13T11:58:29.154Z,2.63
2022-11-13T12:01:05.816Z,4.15
2022-11-13T12:03:38.096Z,2.20
2022-11-13T12:06:26.415Z,1.77
2022-11-13T12:09:10.162Z,1.90
2022-11-13T12:11:51.440Z,2.38
2022-11-13T12:14:48.212Z,2.30
2022-11-13T12:17:38.124Z,2.35
2022-11-13T12:20:26.368Z,1.60
2022-11-13T12:23:11.004Z,2.22
2022-11-13T12:25:53.028Z,4.43
2022-11-13T12:28:42.860Z,1.88
2022-11-13T12:31:39.268Z,2.10
2022-11-13T12:34:29.827Z,1.77
2022-11-13T12:36:58.414Z,1.85
2022-11-13T12:39:40.910Z,2.55
2022-11-13T12:42:29.328Z,1.67
2022-11-13T12:45:16.727Z,2.20
2022-11-13T12:47:43.377Z,1.65
2022-11-13T12:50:32.212Z,2.50
2022-11-13T12:53:11.133Z,1.83
2022-11-13T12:55:39.667Z,2.63
2022-11-13T12:58:09.465Z,2.08
2022-11-13T13:00:41.181Z,2.53
2022-11-13T13:03:21.453Z,2.28
2022-11-13T13:06:03.142Z,1.67
2022-11-13T13:08:47.873Z,1.75
2022-11-13T13:11:23.135Z,2.20
2022-11-13T13:14:04.101Z,1.30
2022-11-13T13:16:30.514Z,1.92
2022-11-13T13:19:32.549Z,1.88
2022-11-13T13:21:59.052Z,1.33
2022-11-13T13:24:37.166Z,2.38
2022-11-13T13:27:22.040Z,2.75
2022-11-13T13:29:48.374Z,1.85
2022-11-13T13:32:23.630Z,1.65
2022-11-13T13:34:59.328Z,1.70
2022-11-13T13:37:38.292Z,2.75
2022-11-13T13:40:13.671Z,1.95
2022-11-13T13:42:58.398Z,1.67
2022-11-13T13:45:43.214Z,2.33
2022-11-13T13:48:12.389Z,1.85
2022-11-13T13:50:44.406Z,2.33
2022-11-13T13:53:15.155Z,2.35
2022-11-13T13:55:48.643Z,2.92
2022-11-13T13:58:19.280Z,2.03
2022-11-13T14:01:17.049Z,2.72
2022-11-13T14:06:29.195Z,2.45
2022-11-13T14:08:55.565Z,3.15
2022-11-13T14:11:29.387Z,3.10
2022-11-13T14:14:07.002Z,5.32
2022-11-13T14:16:33.713Z,3.85
2022-11-13T14:19:05.205Z,2.78
2022-11-13T14:21:31.873Z,2.83
2022-11-13T14:24:02.368Z,3.63
2022-11-13T14:26:29.505Z,2.25
2022-11-13T14:28:59.966Z,2.22
2022-11-13T14:31:30.178Z,2.42
2022-11-13T14:34:00.066Z,3.00
2022-11-13T14:36:31.409Z,2.60
2022-11-13T14:38:59.019Z,2.97
2022-11-13T14:41:34.181Z,2.58
2022-11-13T14:44:00.678Z,2.90
2022-11-13T14:46:45.698Z,3.35
2022-11-13T14:49:15.301Z,3.17
2022-11-13T14:51:41.889Z,5.50
2022-11-13T14:54:33.822Z,5.25
2022-11-13T14:57:10.613Z,6.22
2022-11-13T14:59:38.402Z,4.93
2022-11-13T15:02:05.163Z,5.30
2022-11-13T15:04:35.266Z,5.75
2022-11-13T15:07:26.693Z,6.43
2022-11-13T15:09:53.486Z,5.72
2022-11-13T15:12:19.920Z,6.95
2022-11-13T15:14:46.309Z,7.18
2022-11-13T15:17:16.673Z,6.18
2022-11-13T15:19:43.607Z,5.82
2022-11-13T15:22:26.711Z,7.38
2022-11-13T15:24:54.308Z,8.55
2022-11-13T15:27:20.725Z,6.03
2022-11-13T15:29:47.069Z,6.40
2022-11-13T15:32:15.183Z,6.47
2022-11-13T15:34:41.908Z,5.88
2022-11-13T15:37:11.680Z,6.38
2022-11-13T15:39:38.045Z,7.75
2022-11-13T15:42:07.897Z,7.63
2022-11-13T15:44:34.214Z,8.75
2022-11-13T15:47:00.675Z,6.63
2022-11-13T15:49:27.535Z,6.90
2022-11-13T15:51:53.905Z,7.43
2022-11-13T15:54:33.447Z,6.82
2022-11-13T15:56:59.978Z,7.03
2022-11-13T15:59:26.336Z,8.48
2022-11-13T16:01:56.942Z,6.25
2022-11-13T16:04:26.720Z,8.20
2022-11-13T16:07:17.592Z,7.30
2022-11-13T16:09:45.202Z,8.63
2022-11-13T16:12:12.843Z,8.52
2022-11-13T16:14:40.214Z,8.73
2022-11-13T16:17:20.829Z,9.90
2022-11-13T16:19:53.045Z,8.07
2022-11-13T16:22:24.389Z,9.90
2022-11-13T16:24:50.745Z,8.55
2022-11-13T16:27:29.179Z,8.60
2022-11-13T16:29:55.631Z,9.63
2022-11-13T16:32:22.390Z,8.25
2022-11-13T16:34:49.106Z,9.07
2022-11-13T16:37:20.438Z,8.07
2022-11-13T16:39:47.015Z,10.60
2022-11-13T16:42:14.682Z,8.75
2022-11-13T16:44:41.458Z,10.60
2022-11-13T16:47:20.916Z,13.10
2022-11-13T16:49:47.390Z,9.90
2022-11-13T16:52:13.727Z,10.57
2022-11-13T16:54:40.097Z,12.70
2022-11-13T16:57:08.768Z,13.27
2022-11-13T16:59:35.099Z,14.10
2022-11-13T17:02:01.687Z,13.50
2022-11-13T17:04:28.240Z,12.70
2022-11-13T17:06:57.760Z,15.98
2022-11-13T17:09:24.418Z,14.52
2022-11-13T17:11:50.885Z,15.77
2022-11-13T17:14:17.298Z,18.30
2022-11-13T17:16:43.673Z,14.77
2022-11-13T17:19:13.651Z,16.70
2022-11-13T17:21:44.125Z,18.60
2022-11-13T17:24:10.943Z,17.83
2022-11-13T17:26:37.274Z,19.13
2022-11-13T17:29:05.669Z,21.25
2022-11-13T17:31:32.317Z,18.35
2022-11-13T17:33:58.738Z,21.95
2022-11-13T17:36:25.224Z,20.00
2022-11-13T17:38:51.614Z,19.75
2022-11-13T17:41:18.129Z,22.50
2022-11-13T17:43:44.637Z,22.48
2022-11-13T17:46:14.416Z,21.65
2022-11-13T17:48:41.628Z,23.75
2022-11-13T17:51:12.121Z,24.38
2022-11-13T17:53:38.534Z,29.65
2022-11-13T17:56:08.048Z,26.55
2022-11-13T17:58:41.534Z,26.65
2022-11-13T18:01:11.190Z,24.02
2022-11-13T18:03:38.153Z,28.15
2022-11-13T18:06:11.219Z,26.70
2022-11-13T18:08:41.313Z,27.58
2022-11-13T18:11:15.550Z,27.98
2022-11-13T18:13:43.017Z,28.92
2022-11-13T18:16:12.808Z,26.98
2022-11-13T18:18:39.433Z,31.38
2022-11-13T18:21:22.420Z,32.78
2022-11-13T18:23:55.383Z,34.38
2022-11-13T18:26:21.706Z,34.50
2022-11-13T18:28:48.060Z,30.20
2022-11-13T18:31:17.728Z,34.63
2022-11-13T18:33:44.748Z,35.90
2022-11-13T18:36:11.421Z,33.83
2022-11-13T18:38:37.910Z,32.85
2022-11-13T18:41:18.586Z,33.67
2022-11-13T18:43:46.653Z,37.35
2022-11-13T18:46:14.575Z,35.97
2022-11-13T18:48:43.717Z,34.05
2022-11-13T18:51:14.814Z,34.22
2022-11-13T18:53:43.645Z,38.90
2022-11-13T18:56:34.441Z,37.25
2022-11-13T18:59:00.878Z,34.83
2022-11-13T19:01:30.847Z,38.78
2022-11-13T19:04:21.762Z,36.30
2022-11-13T19:06:49.325Z,37.63
2022-11-13T19:09:16.945Z,37.47
2022-11-13T19:11:43.751Z,36.95
2022-11-13T19:14:13.822Z,37.97
2022-11-13T19:16:40.275Z,37.75
2022-11-13T19:19:19.683Z,38.22
2022-11-13T19:21:46.615Z,39.95
2022-11-13T19:24:14.647Z,36.20
2022-11-13T19:26:42.441Z,37.83
2022-11-13T19:29:08.857Z,41.83
2022-11-13T19:31:35.350Z,40.72
2022-11-13T19:34:04.729Z,37.08
2022-11-13T19:36:32.062Z,36.30
2022-11-13T19:38:59.079Z,36.60
2022-11-13T19:41:27.922Z,39.13
2022-11-13T19:43:55.093Z,34.50
2022-11-13T19:46:21.696Z,36.55
2022-11-13T19:48:49.544Z,34.67
2022-11-13T19:51:19.174Z,39.60
2022-11-13T19:53:46.342Z,37.22
2022-11-13T19:56:23.134Z,38.20
2022-11-13T19:58:51.198Z,40.17
2022-11-13T20:01:23.421Z,39.63
2022-11-13T20:03:54.634Z,40.03
2022-11-13T20:06:21.577Z,40.05
2022-11-13T20:08:48.177Z,38.40
2022-11-13T20:11:18.063Z,40.25
2022-11-13T20:13:44.741Z,39.92
2022-11-13T20:16:14.041Z,40.50
2022-11-13T20:18:42.448Z,37.35
2022-11-13T20:21:09.582Z,41.08
2022-11-13T20:23:36.549Z,40.00
2022-11-13T20:26:05.935Z,43.30
2022-11-13T20:28:32.652Z,45.17
2022-11-13T20:31:02.975Z,40.60
2022-11-13T20:33:34.599Z,41.65
2022-11-13T20:36:02.469Z,42.83
2022-11-13T20:38:29.752Z,38.70
2022-11-13T20:40:56.391Z,42.75
2022-11-13T20:43:22.987Z,44.65
2022-11-13T20:45:49.667Z,40.63
2022-11-13T20:48:16.111Z,40.10
2022-11-13T20:50:42.568Z,40.65
2022-11-13T20:53:09.162Z,46.03
2022-11-13T20:55:35.552Z,43.75
2022-11-13T20:58:04.297Z,46.65
2022-11-13T21:00:31.043Z,44.20
2022-11-13T21:05:38.903Z,45.65
2022-11-13T21:08:05.433Z,46.90
2022-11-13T21:10:33.573Z,44.83
2022-11-13T21:13:00.033Z,42.30
2022-11-13T21:15:26.480Z,45.35
2022-11-13T21:17:53.015Z,42.63
2022-11-13T21:20:19.463Z,44.50
2022-11-13T21:22:45.886Z,49.40
2022-11-13T21:25:12.424Z,46.10
2022-11-13T21:27:38.844Z,47.20
2022-11-13T21:30:05.961Z,46.50
2022-11-13T21:32:32.436Z,48.00
2022-11-13T21:35:34.604Z,49.53
2022-11-13T21:38:05.234Z,49.10
2022-11-13T21:40:31.653Z,50.40
2022-11-13T21:42:58.050Z,49.15
2022-11-13T21:45:24.505Z,52.60
2022-11-13T21:47:52.648Z,48.03
2022-11-13T21:50:19.130Z,52.10
2022-11-13T21:52:45.551Z,50.65
2022-11-13T21:55:11.936Z,50.58
2022-11-13T21:57:38.245Z,48.80
2022-11-13T22:00:05.410Z,53.05
2022-11-13T22:02:31.897Z,50.70
2022-11-13T22:04:58.269Z,50.00
2022-11-13T22:07:24.792Z,50.80
2022-11-13T22:09:51.149Z,50.35
2022-11-13T22:12:17.465Z,51.42
2022-11-13T22:14:43.849Z,49.90
2022-11-13T22:17:10.216Z,53.60
2022-11-13T22:19:36.721Z,49.67
2022-11-13T22:22:03.278Z,48.45
2022-11-13T22:24:30.698Z,54.47
2022-11-13T22:26:57.095Z,55.65
2022-11-13T22:29:23.458Z,49.97
2022-11-13T22:31:49.807Z,50.97
2022-11-13T22:34:16.145Z,50.78
2022-11-13T22:36:42.490Z,51.60
2022-11-13T22:39:08.920Z,55.08
2022-11-13T22:41:36.423Z,56.63
2022-11-13T22:44:11.528Z,49.72
2022-11-13T22:46:38.143Z,53.08
2022-11-13T22:49:05.984Z,50.67
2022-11-13T22:51:38.455Z,48.13
2022-11-13T22:54:14.097Z,49.05
2022-11-13T22:56:41.272Z,52.85
2022-11-13T22:59:10.879Z,52.58
2022-11-13T23:01:38.772Z,55.45
2022-11-13T23:04:07.870Z,49.58
2022-11-13T23:06:35.508Z,51.97
2022-11-13T23:09:03.336Z,48.58
2022-11-13T23:11:33.168Z,48.80
2022-11-13T23:14:02.156Z,48.13
2022-11-13T23:16:30.065Z,52.83
2022-11-13T23:18:58.250Z,49.95
2022-11-13T23:21:26.241Z,54.08
2022-11-13T23:23:53.656Z,52.85
2022-11-13T23:26:20.901Z,51.53
2022-11-13T23:28:47.392Z,48.78
2022-11-13T23:31:13.889Z,53.20
2022-11-13T23:33:40.881Z,50.88
2022-11-13T23:36:09.393Z,52.35
2022-11-13T23:38:36.149Z,51.33
2022-11-13T23:41:02.697Z,53.15
2022-11-13T23:43:54.197Z,52.20
2022-11-13T23:46:16.662Z,54.25
2022-11-13T23:48:43.019Z,49.88
2022-11-13T23:51:09.362Z,48.30
2022-11-13T23:53:35.818Z,53.20
2022-11-13T23:56:02.212Z,53.25
2022-11-13T23:58:29.006Z,54.17
